Time;durP1;ratioP1;P1;durP2;ratioP2;P2;SDS_P1;SDS_P2;PMS_P1;PMS_P2;Temp;Humidity;BMP_temperature;BMP_pressure;BME280_temperature;BME280_humidity;BME280_pressure;Samples;Min_cycle;Max_cycle;Signal;HPM_P1;HPM_P2
2021/07/10 00:00:39;;;;;;;20.73;14.40;;;14.80;99.90;;;14.16;100.00;97977.38;5048876;28;20064;-63
2021/07/10 00:03:26;;;;;;;23.10;11.48;;;14.80;99.90;;;14.30;100.00;97968.84;5051278;28;20162;-63
2021/07/10 00:06:13;;;;;;;30.67;12.13;;;15.00;99.90;;;14.48;100.00;97956.56;5035426;28;20057;-63
2021/07/10 00:09:00;;;;;;;21.50;10.70;;;15.10;99.90;;;14.57;100.00;97953.53;5053314;28;20141;-64
2021/07/10 00:11:48;;;;;;;13.75;9.63;;;15.20;99.90;;;14.49;100.00;97952.22;5050625;28;20045;-63
2021/07/10 00:14:35;;;;;;;19.52;10.75;;;15.30;99.90;;;14.45;100.00;97959.34;5050526;28;20041;-64
2021/07/10 00:17:23;;;;;;;38.65;11.68;;;15.30;99.90;;;14.46;100.00;97960.19;5055221;28;20042;-64
2021/07/10 00:20:12;;;;;;;50.88;11.45;;;15.30;99.90;;;14.42;100.00;97968.19;5038710;28;20060;-63
2021/07/10 00:23:01;;;;;;;29.95;10.98;;;15.30;99.90;;;14.62;100.00;97959.34;5046046;28;20033;-63
2021/07/10 00:25:49;;;;;;;13.02;10.10;;;15.30;99.90;;;14.62;99.95;97959.34;5050865;28;20041;-63
2021/07/10 00:28:36;;;;;;;14.25;9.63;;;15.30;99.90;;;14.60;99.65;97957.75;5051745;28;20075;-63
2021/07/10 00:31:23;;;;;;;67.93;11.90;;;15.30;99.90;;;14.57;99.46;97955.28;5048115;28;20041;-63
2021/07/10 00:34:12;;;;;;;18.73;9.90;;;15.20;99.90;;;14.37;99.32;97948.47;5052718;28;20033;-63
2021/07/10 00:36:59;;;;;;;26.90;9.45;;;15.30;99.90;;;14.34;98.90;97957.28;5052218;28;20064;-63
2021/07/10 00:39:46;;;;;;;44.13;10.63;;;15.20;99.90;;;14.22;99.38;97945.72;5043656;28;20053;-63
2021/07/10 00:42:35;;;;;;;32.47;9.85;;;15.20;99.90;;;14.23;98.58;97943.94;5059807;28;20049;-63
2021/07/10 00:45:22;;;;;;;13.13;7.28;;;15.10;99.90;;;14.17;98.06;97933.84;5044594;28;20049;-63
2021/07/10 00:48:10;;;;;;;61.40;10.07;;;15.00;99.90;;;14.19;97.98;97938.06;5043315;28;20064;-63
2021/07/10 00:50:57;;;;;;;118.05;16.08;;;15.00;99.90;;;13.66;100.00;97945.94;5024917;28;20056;-63
2021/07/10 00:53:44;;;;;;;34.97;12.80;;;14.90;99.90;;;13.69;100.00;97940.59;5038629;28;20430;-63
2021/07/10 00:56:32;;;;;;;16.48;10.60;;;14.60;99.90;;;13.76;100.00;97937.59;5042799;28;20094;-63
2021/07/10 00:59:20;;;;;;;143.88;20.45;;;14.60;99.90;;;13.69;100.00;97927.56;5050900;28;20095;-63
2021/07/10 01:02:08;;;;;;;263.25;24.60;;;14.60;99.90;;;13.57;100.00;97929.84;5036304;28;20041;-63
2021/07/10 01:04:55;;;;;;;161.30;16.98;;;14.60;99.90;;;13.42;100.00;97927.16;5036086;28;20068;-63
2021/07/10 01:07:43;;;;;;;58.55;14.02;;;14.40;99.90;;;13.51;100.00;97926.69;5049341;28;20045;-63
2021/07/10 01:10:30;;;;;;;174.60;19.75;;;14.40;99.90;;;13.38;100.00;97924.66;5049972;28;20037;-64
2021/07/10 01:13:19;;;;;;;276.80;29.63;;;14.40;99.90;;;13.37;100.00;97920.38;5028799;28;20489;-64
2021/07/10 01:16:07;;;;;;;267.92;27.23;;;14.40;99.90;;;13.17;100.00;97925.69;5053637;28;20044;-64
2021/07/10 01:18:55;;;;;;;130.05;21.63;;;14.30;99.90;;;12.93;100.00;97918.13;5051915;28;20033;-63
2021/07/10 01:21:42;;;;;;;212.85;26.48;;;14.20;99.90;;;12.84;100.00;97915.94;5052194;28;20262;-63
2021/07/10 01:24:30;;;;;;;157.38;25.58;;;14.10;99.90;;;12.82;100.00;97909.06;5047803;28;20127;-64
2021/07/10 01:27:17;;;;;;;25.52;11.80;;;14.10;99.90;;;12.98;100.00;97904.88;5049411;28;20037;-63
2021/07/10 01:30:09;;;;;;;150.88;21.63;;;14.00;99.90;;;13.00;100.00;97903.03;5048805;28;20120;-64
2021/07/10 01:32:56;;;;;;;281.50;32.42;;;13.90;99.90;;;12.85;100.00;97901.97;5049127;28;20408;-64
2021/07/10 01:35:44;;;;;;;207.68;27.80;;;13.90;99.90;;;12.71;100.00;97893.97;5050481;28;20048;-62
2021/07/10 01:38:32;;;;;;;288.13;37.55;;;14.00;99.90;;;12.63;100.00;97894.31;5049459;28;20456;-63
2021/07/10 01:41:19;;;;;;;348.00;40.15;;;13.90;99.90;;;12.54;100.00;97895.59;5049116;28;20417;-62
2021/07/10 01:44:07;;;;;;;423.20;46.13;;;13.90;99.90;;;12.44;100.00;97896.91;5048212;28;20045;-62
2021/07/10 01:46:54;;;;;;;155.65;24.85;;;13.80;99.90;;;12.48;100.00;97895.03;5045732;28;20076;-63
2021/07/10 01:49:42;;;;;;;210.07;27.85;;;13.70;99.90;;;12.55;100.00;97884.25;5050726;28;20041;-62
2021/07/10 01:52:29;;;;;;;219.20;24.02;;;13.70;99.90;;;12.49;100.00;97884.50;5051306;28;20091;-62
2021/07/10 01:55:17;;;;;;;129.10;16.15;;;13.70;99.90;;;12.40;100.00;97879.72;5049380;28;20045;-62
2021/07/10 01:58:05;;;;;;;113.00;21.23;;;13.70;99.90;;;12.38;100.00;97891.97;5049485;28;20135;-63
2021/07/10 02:00:52;;;;;;;40.88;13.43;;;13.50;99.90;;;12.22;100.00;97889.19;5050683;28;20064;-62
2021/07/10 02:03:40;;;;;;;164.75;34.47;;;13.50;99.90;;;12.14;100.00;97884.34;5049914;28;20052;-62
2021/07/10 02:06:28;;;;;;;183.77;35.47;;;13.50;99.90;;;12.16;100.00;97880.81;5046768;28;20099;-62
2021/07/10 02:09:15;;;;;;;80.57;24.67;;;13.50;99.90;;;12.05;100.00;97881.31;5034672;28;20392;-62
2021/07/10 02:12:03;;;;;;;147.20;27.95;;;13.50;99.90;;;11.95;100.00;97873.06;5050326;28;20044;-62
2021/07/10 02:14:51;;;;;;;65.95;12.93;;;13.40;99.90;;;12.02;100.00;97874.47;5045968;28;20033;-62
2021/07/10 02:17:42;;;;;;;208.23;26.02;;;13.30;99.90;;;11.96;100.00;97879.09;5048482;28;20045;-62
2021/07/10 02:20:29;;;;;;;246.30;22.65;;;13.30;99.90;;;11.92;100.00;97868.81;5036150;28;20562;-62
2021/07/10 02:23:17;;;;;;;414.33;41.95;;;13.20;99.90;;;11.84;100.00;97870.03;5046112;28;20227;-62
2021/07/10 02:26:04;;;;;;;381.67;38.38;;;13.10;99.90;;;11.84;100.00;97857.88;5047056;28;20103;-62
2021/07/10 02:28:51;;;;;;;274.45;35.92;;;13.10;99.90;;;11.83;100.00;97852.72;5045960;28;20398;-62
2021/07/10 02:31:39;;;;;;;138.57;19.52;;;13.10;99.90;;;11.88;100.00;97849.06;5048235;28;20318;-62
2021/07/10 02:34:26;;;;;;;121.15;19.25;;;13.20;99.90;;;11.81;100.00;97850.19;5048374;28;20052;-62
2021/07/10 02:37:13;;;;;;;209.45;32.30;;;13.20;99.90;;;11.84;100.00;97842.28;5047727;28;20349;-62
2021/07/10 02:40:04;;;;;;;33.53;13.45;;;13.10;99.90;;;11.94;100.00;97840.13;5049213;28;20110;-62
2021/07/10 02:42:51;;;;;;;64.45;17.40;;;13.10;99.90;;;11.92;100.00;97844.56;5047183;28;20037;-62
2021/07/10 02:45:39;;;;;;;43.42;20.42;;;13.20;99.90;;;11.82;100.00;97844.09;5046693;28;20126;-62
2021/07/10 02:48:27;;;;;;;36.40;15.43;;;13.10;99.90;;;11.91;100.00;97853.28;5042489;28;20456;-63
2021/07/10 02:51:15;;;;;;;38.80;15.85;;;13.10;99.90;;;11.91;100.00;97851.53;5049346;28;20037;-62
2021/07/10 02:54:02;;;;;;;18.98;8.57;;;13.10;99.90;;;12.10;100.00;97850.72;5047155;28;20086;-62
2021/07/10 02:56:49;;;;;;;10.82;6.40;;;13.10;99.90;;;12.27;100.00;97844.75;5035975;28;20037;-62
2021/07/10 02:59:37;;;;;;;63.05;15.00;;;13.20;99.90;;;12.18;100.00;97846.03;5033163;28;20041;-63
2021/07/10 03:02:25;;;;;;;62.97;14.23;;;13.20;99.90;;;12.19;100.00;97845.09;5041741;28;20048;-63
2021/07/10 03:05:15;;;;;;;29.77;7.72;;;13.20;99.90;;;12.14;100.00;97844.47;5031367;28;20051;-64
2021/07/10 03:08:04;;;;;;;29.83;8.48;;;13.20;99.90;;;12.09;100.00;97841.25;5047079;28;20056;-63
2021/07/10 03:10:52;;;;;;;21.08;6.45;;;13.20;99.90;;;12.22;100.00;97834.53;5048911;28;20070;-63
2021/07/10 03:13:40;;;;;;;11.27;5.43;;;13.20;99.90;;;12.38;100.00;97832.09;5035173;28;20053;-63
2021/07/10 03:16:28;;;;;;;9.45;5.45;;;13.20;99.90;;;12.46;100.00;97837.81;5052022;28;20182;-63
2021/07/10 03:19:16;;;;;;;9.68;6.38;;;13.30;99.90;;;12.45;100.00;97832.66;5029301;28;20029;-62
2021/07/10 03:22:04;;;;;;;11.48;5.45;;;13.40;99.90;;;12.45;100.00;97833.53;5047639;28;20049;-63
2021/07/10 03:24:52;;;;;;;59.38;7.45;;;13.30;99.90;;;12.33;100.00;97828.84;5041888;28;20045;-63
2021/07/10 03:27:40;;;;;;;70.05;7.10;;;13.30;99.90;;;12.15;100.00;97827.94;5033781;28;20397;-63
2021/07/10 03:30:28;;;;;;;8.18;6.10;;;13.20;99.90;;;12.22;100.00;97820.69;5040342;28;20080;-63
2021/07/10 03:33:15;;;;;;;13.15;4.90;;;13.20;99.90;;;12.34;100.00;97830.56;5046151;28;20076;-63
2021/07/10 03:36:05;;;;;;;34.22;7.15;;;13.20;99.90;;;12.47;100.00;97823.03;5051196;28;20707;-63
2021/07/10 03:38:54;;;;;;;95.70;7.72;;;13.20;99.90;;;12.26;100.00;97827.47;5051582;28;20128;-63
2021/07/10 03:41:41;;;;;;;173.05;13.15;;;13.30;99.90;;;12.02;100.00;97824.19;5051784;28;20045;-63
2021/07/10 03:44:28;;;;;;;238.18;16.95;;;13.20;99.90;;;12.06;100.00;97817.94;5013136;28;20068;-63
2021/07/10 03:47:16;;;;;;;27.25;5.05;;;13.00;99.90;;;12.27;100.00;97822.19;5051855;28;20462;-63
2021/07/10 03:50:05;;;;;;;24.67;5.65;;;13.00;99.90;;;12.35;100.00;97820.06;5052235;28;20079;-63
2021/07/10 03:52:53;;;;;;;7.35;3.85;;;13.10;99.90;;;12.33;100.00;97821.06;5034233;28;20045;-63
2021/07/10 03:55:40;;;;;;;11.13;4.00;;;13.20;99.90;;;12.37;100.00;97816.56;5038229;28;20512;-63
2021/07/10 03:58:28;;;;;;;18.52;3.75;;;13.30;99.90;;;12.50;100.00;97820.28;5048144;28;20111;-62
2021/07/10 04:01:15;;;;;;;44.97;11.75;;;13.40;99.90;;;12.24;100.00;97818.88;5051375;28;20172;-63
2021/07/10 04:04:03;;;;;;;35.08;7.95;;;13.40;99.90;;;12.05;100.00;97824.06;5052934;28;20053;-63
2021/07/10 04:06:50;;;;;;;238.43;32.90;;;13.30;99.90;;;11.89;100.00;97816.09;5046443;28;20043;-63
2021/07/10 04:09:37;;;;;;;24.65;7.05;;;13.20;99.90;;;11.90;100.00;97816.00;5050988;28;20053;-63
2021/07/10 04:12:25;;;;;;;37.35;8.20;;;13.20;99.90;;;11.92;100.00;97823.75;5047604;28;20037;-63
2021/07/10 04:15:15;;;;;;;79.10;17.30;;;13.20;99.90;;;11.72;100.00;97819.38;5049401;28;20102;-63
2021/07/10 04:18:03;;;;;;;92.72;18.13;;;13.20;99.90;;;11.66;100.00;97817.91;5040270;28;20037;-63
2021/07/10 04:20:50;;;;;;;33.65;8.30;;;13.20;99.90;;;11.87;100.00;97818.75;5051895;28;20202;-63
2021/07/10 04:23:38;;;;;;;13.27;6.22;;;13.20;99.90;;;12.04;100.00;97812.81;5049868;28;20052;-63
2021/07/10 04:26:25;;;;;;;50.00;10.73;;;13.30;99.90;;;12.09;100.00;97813.44;5048592;28;20037;-63
2021/07/10 04:29:12;;;;;;;22.05;8.13;;;13.40;99.90;;;12.00;100.00;97813.88;5043778;28;20049;-63
2021/07/10 04:31:59;;;;;;;23.50;6.70;;;13.40;99.90;;;12.16;100.00;97813.16;5047440;28;20048;-63
2021/07/10 04:34:47;;;;;;;41.63;11.90;;;13.50;99.90;;;11.97;100.00;97811.38;5049306;28;20029;-63
2021/07/10 04:37:39;;;;;;;13.02;3.53;;;13.40;99.90;;;12.29;100.00;97817.75;5047670;28;20112;-63
2021/07/10 04:40:26;;;;;;;54.45;11.18;;;13.40;99.90;;;12.25;100.00;97818.81;5049734;28;20036;-63
2021/07/10 04:43:14;;;;;;;26.73;7.82;;;13.50;99.90;;;12.29;100.00;97816.91;5044140;28;20099;-63
2021/07/10 04:46:02;;;;;;;39.72;9.18;;;13.60;99.90;;;12.34;100.00;97813.19;5045258;28;20398;-63
2021/07/10 04:48:49;;;;;;;22.73;7.15;;;13.70;99.90;;;12.60;100.00;97815.50;5050178;28;20769;-63
2021/07/10 04:51:37;;;;;;;29.38;11.40;;;13.70;99.90;;;12.53;100.00;97807.97;5050829;28;20048;-63
2021/07/10 04:54:25;;;;;;;19.95;10.55;;;13.70;99.90;;;12.64;100.00;97809.22;5047003;28;20119;-63
2021/07/10 04:57:12;;;;;;;6.45;4.82;;;13.80;99.90;;;12.59;100.00;97808.56;5048673;28;20501;-63
2021/07/10 05:00:00;;;;;;;11.13;7.57;;;13.90;99.90;;;12.27;100.00;97809.19;5048446;28;20138;-63
2021/07/10 05:02:47;;;;;;;9.93;7.03;;;14.00;99.90;;;12.45;100.00;97819.63;5050348;28;20041;-63
2021/07/10 05:05:35;;;;;;;6.80;5.65;;;13.90;99.90;;;12.59;100.00;97813.78;5047787;28;20052;-63
2021/07/10 05:08:22;;;;;;;3.80;3.35;;;13.90;99.90;;;13.02;100.00;97807.38;5045454;28;20095;-63
2021/07/10 05:11:10;;;;;;;3.85;3.22;;;14.10;99.90;;;13.15;99.63;97815.44;5049910;28;20159;-63
2021/07/10 05:13:58;;;;;;;10.52;8.25;;;14.20;99.90;;;13.14;99.85;97813.75;5047142;28;20044;-63
2021/07/10 05:16:47;;;;;;;5.97;5.00;;;14.30;99.90;;;13.15;100.00;97816.28;5051872;28;20481;-63
2021/07/10 05:19:34;;;;;;;4.93;3.90;;;14.40;99.90;;;13.26;99.87;97812.31;5047342;28;20049;-63
2021/07/10 05:22:22;;;;;;;6.15;4.60;;;14.50;99.90;;;13.30;100.00;97808.66;5050869;28;20044;-63
2021/07/10 05:25:11;;;;;;;8.02;5.75;;;14.50;99.90;;;13.50;99.89;97813.72;5048103;28;20088;-63
2021/07/10 05:27:59;;;;;;;6.03;4.15;;;14.60;99.90;;;14.16;97.68;97812.03;5049923;28;20417;-63
2021/07/10 05:30:47;;;;;;;7.82;4.18;;;14.90;99.90;;;14.12;97.67;97805.31;5050046;28;20041;-63
2021/07/10 05:33:36;;;;;;;5.18;4.38;;;15.20;99.90;;;14.36;96.92;97809.22;5028158;28;20037;-63
2021/07/10 05:36:23;;;;;;;4.30;3.53;;;15.50;99.90;;;14.53;96.49;97804.81;5050400;28;20045;-63
2021/07/10 05:39:10;;;;;;;5.22;4.47;;;15.80;99.90;;;14.78;96.02;97806.94;5048699;28;20528;-63
2021/07/10 05:41:58;;;;;;;7.55;3.97;;;16.00;99.90;;;14.86;94.21;97807.38;5047413;28;20040;-63
2021/07/10 05:44:45;;;;;;;4.82;4.18;;;16.20;99.90;;;14.92;94.48;97807.03;5036066;28;20040;-63
2021/07/10 05:47:33;;;;;;;6.38;5.78;;;16.20;99.90;;;14.41;95.48;97814.19;5049561;28;20044;-63
2021/07/10 05:50:21;;;;;;;6.10;5.50;;;16.20;99.90;;;14.63;94.91;97808.66;5029027;28;20045;-63
2021/07/10 05:53:08;;;;;;;7.78;5.03;;;16.20;99.90;;;14.69;94.78;97812.69;5045656;28;20045;-63
2021/07/10 05:55:56;;;;;;;7.20;5.00;;;16.20;99.90;;;14.41;96.91;97814.19;5049327;28;20037;-63
2021/07/10 05:58:43;;;;;;;7.50;5.65;;;16.20;99.90;;;14.23;98.94;97811.66;5047349;28;20432;-63
2021/07/10 06:01:31;;;;;;;4.93;4.32;;;16.20;99.90;;;14.56;97.15;97807.31;5048234;28;20053;-63
2021/07/10 06:04:18;;;;;;;5.32;4.50;;;16.00;99.90;;;14.91;95.83;97807.13;5048356;28;20037;-63
2021/07/10 06:07:07;;;;;;;5.57;4.50;;;15.90;99.90;;;15.09;95.39;97813.09;5044934;28;20496;-63
2021/07/10 06:09:54;;;;;;;6.82;5.50;;;15.90;99.90;;;15.34;94.54;97796.81;5049131;28;20048;-63
2021/07/10 06:17:27;;;;;;;12.32;7.47;;;16.30;99.90;;;15.37;93.04;97805.34;5047218;28;20063;-64
2021/07/10 06:20:17;;;;;;;10.15;8.38;;;16.70;99.90;;;15.47;94.01;97811.69;5047431;28;20037;-63
2021/07/10 06:23:05;;;;;;;9.20;7.03;;;16.90;99.90;;;15.74;92.85;97802.34;5042830;28;20061;-63
2021/07/10 06:25:53;;;;;;;11.90;7.68;;;17.10;99.90;;;15.92;93.00;97801.25;5042102;28;20044;-63
2021/07/10 06:28:40;;;;;;;11.98;7.63;;;17.30;99.90;;;16.01;90.39;97807.66;5045405;28;20052;-63
2021/07/10 06:31:27;;;;;;;10.50;7.03;;;17.60;99.90;;;16.29;90.86;97806.84;5048466;28;20382;-63
2021/07/10 06:34:15;;;;;;;12.05;8.40;;;17.80;99.90;;;16.63;89.03;97815.22;5050553;28;20415;-64
2021/07/10 06:37:04;;;;;;;11.93;8.45;;;17.90;99.90;;;16.68;90.28;97811.34;5028464;28;20473;-64
2021/07/10 06:39:51;;;;;;;7.80;6.28;;;18.20;99.90;;;17.39;87.91;97808.56;5047822;28;20037;-63
2021/07/10 06:42:39;;;;;;;9.10;5.30;;;18.40;99.90;;;17.65;86.03;97802.41;5042080;28;20052;-63
2021/07/10 06:45:27;;;;;;;10.00;4.93;;;18.70;99.90;;;17.95;83.50;97809.19;5046598;28;20130;-63
2021/07/10 06:48:14;;;;;;;6.88;4.97;;;19.10;99.90;;;18.35;83.10;97806.38;5047667;28;20040;-63
2021/07/10 06:51:03;;;;;;;5.70;4.20;;;19.40;99.90;;;18.45;79.28;97809.19;5047957;28;20060;-64
2021/07/10 06:53:50;;;;;;;6.85;4.50;;;19.60;99.90;;;18.66;79.86;97806.84;5048059;28;20051;-63
2021/07/10 06:56:38;;;;;;;7.35;4.28;;;19.80;99.90;;;18.93;81.17;97801.38;5047762;28;20402;-64
2021/07/10 06:59:25;;;;;;;6.55;4.30;;;20.10;99.90;;;19.09;80.66;97809.00;5046063;28;20481;-64
2021/07/10 07:02:12;;;;;;;5.20;4.55;;;20.30;99.90;;;19.42;79.52;97805.66;5048514;28;20460;-63
2021/07/10 07:05:00;;;;;;;6.32;4.25;;;20.60;99.90;;;19.56;78.14;97794.09;5049027;28;20128;-63
2021/07/10 07:07:47;;;;;;;5.25;3.90;;;20.70;99.90;;;19.39;78.13;97796.19;5041467;28;20072;-61
2021/07/10 07:10:34;;;;;;;8.75;4.32;;;20.90;99.90;;;19.53;78.01;97795.16;5046747;28;20083;-61
2021/07/10 07:13:22;;;;;;;5.82;3.90;;;21.00;99.90;;;19.74;77.40;97794.53;5045274;28;20099;-64
2021/07/10 07:16:09;;;;;;;7.90;4.43;;;21.00;99.90;;;19.49;76.79;97785.81;5047767;28;20658;-64
2021/07/10 07:18:56;;;;;;;5.85;4.35;;;21.10;99.90;;;19.65;76.46;97782.84;5048774;28;20037;-61
2021/07/10 07:21:44;;;;;;;6.07;4.13;;;21.20;99.90;;;19.75;72.52;97788.28;5039652;28;20094;-63
2021/07/10 07:24:31;;;;;;;7.47;3.67;;;21.20;99.90;;;20.11;74.56;97781.13;5048132;28;20118;-64
2021/07/10 07:27:19;;;;;;;6.82;3.60;;;21.10;99.90;;;20.46;73.32;97786.28;5047502;28;20068;-64
2021/07/10 07:30:09;;;;;;;4.38;3.30;;;21.40;99.90;;;20.68;73.86;97772.22;5042609;28;20520;-64
2021/07/10 07:32:56;;;;;;;6.78;3.50;;;21.70;99.90;;;20.76;70.80;97777.72;5045367;28;20033;-61
2021/07/10 07:35:44;;;;;;;4.63;3.50;;;21.90;99.90;;;20.56;68.83;97774.03;5047978;28;20037;-61
2021/07/10 07:38:32;;;;;;;6.38;3.20;;;22.10;99.90;;;21.06;70.83;97766.44;5044468;28;20116;-61
2021/07/10 07:41:19;;;;;;;6.35;3.28;;;22.30;99.90;;;20.66;69.81;97768.84;5050161;28;20544;-64
2021/07/10 07:44:08;;;;;;;4.60;3.35;;;22.10;99.90;;;20.90;68.98;97763.41;5048556;28;20116;-62
2021/07/10 07:46:55;;;;;;;4.32;3.03;;;22.10;99.90;;;21.24;66.99;97757.97;5046544;28;20052;-61
2021/07/10 07:49:44;;;;;;;6.10;3.58;;;22.20;99.90;;;20.81;65.51;97764.97;5050533;28;20076;-62
2021/07/10 07:52:31;;;;;;;5.70;3.30;;;22.20;99.90;;;21.42;66.34;97764.41;5033767;28;20068;-62
2021/07/10 07:55:19;;;;;;;4.88;2.95;;;22.30;99.90;;;20.86;65.27;97765.44;5048076;28;20045;-63
2021/07/10 07:58:06;;;;;;;5.68;2.60;;;22.30;99.90;;;21.54;63.92;97757.25;5050779;28;20039;-63
2021/07/10 08:00:53;;;;;;;4.63;2.90;;;22.40;99.90;;;21.54;64.61;97754.59;5048187;28;20037;-63
2021/07/10 08:03:41;;;;;;;5.07;2.75;;;22.70;99.90;;;21.40;61.71;97750.47;5046664;28;20037;-63
2021/07/10 08:06:28;;;;;;;3.80;2.90;;;22.60;99.90;;;21.84;64.65;97750.31;5044451;28;20041;-63
2021/07/10 08:09:16;;;;;;;4.97;3.20;;;22.70;99.90;;;21.73;62.82;97759.13;5041190;28;20063;-62
2021/07/10 08:12:04;;;;;;;6.10;2.85;;;23.00;99.90;;;22.29;63.73;97756.09;5031543;28;20057;-62
2021/07/10 08:14:51;;;;;;;5.13;2.20;;;23.40;99.90;;;22.16;59.63;97755.44;5049259;28;20393;-62
2021/07/10 08:17:38;;;;;;;2.95;1.90;;;23.30;99.90;;;22.55;57.98;97752.94;5043065;28;20065;-62
2021/07/10 08:20:26;;;;;;;4.70;3.00;;;23.40;99.90;;;21.50;60.05;97739.97;5049330;28;20416;-62
2021/07/10 08:23:14;;;;;;;3.97;2.50;;;23.50;99.90;;;21.72;61.23;97749.56;5049234;28;20150;-62
2021/07/10 08:26:02;;;;;;;3.42;2.50;;;23.40;99.90;;;22.70;60.14;97737.53;5051432;28;20162;-62
2021/07/10 08:28:49;;;;;;;3.30;2.08;;;23.70;99.90;;;23.65;58.87;97742.09;5049385;28;20040;-63
2021/07/10 08:31:37;;;;;;;2.38;1.75;;;24.20;99.90;;;23.80;57.64;97731.88;5049701;28;20044;-63
2021/07/10 08:34:25;;;;;;;4.70;2.10;;;24.60;99.90;;;23.07;54.81;97729.75;5045469;28;20037;-63
2021/07/10 08:37:12;;;;;;;4.22;2.35;;;24.80;99.90;;;23.19;58.65;97733.09;5047631;28;20052;-63
2021/07/10 08:39:59;;;;;;;3.33;2.00;;;24.70;99.90;;;23.71;56.18;97725.59;5048694;28;20087;-63
2021/07/10 08:42:47;;;;;;;3.15;1.60;;;24.60;99.90;;;24.21;55.59;97727.91;5046143;28;20041;-63
2021/07/10 08:45:35;;;;;;;5.32;2.20;;;25.00;99.90;;;22.33;56.28;97722.28;5051774;28;20095;-63
2021/07/10 08:48:24;;;;;;;4.35;1.85;;;25.20;99.90;;;23.65;55.16;97728.84;5050723;28;20045;-62
2021/07/10 08:51:13;;;;;;;5.28;1.70;;;25.00;99.90;;;24.08;52.56;97735.38;5035737;28;20517;-62
2021/07/10 08:54:00;;;;;;;2.53;1.60;;;24.90;99.90;;;25.09;50.85;97729.16;5041328;28;20452;-62
2021/07/10 08:56:48;;;;;;;3.88;1.90;;;25.30;99.90;;;25.43;53.14;97722.19;5046779;28;20045;-62
2021/07/10 08:59:36;;;;;;;3.45;1.25;;;26.00;99.90;;;26.64;49.60;97719.44;5049470;28;20037;-62
2021/07/10 09:02:24;;;;;;;3.05;1.63;;;26.60;99.90;;;25.79;47.69;97723.88;5051481;28;20044;-62
2021/07/10 09:05:12;;;;;;;3.05;1.40;;;26.50;99.90;;;25.30;46.30;97718.25;5051478;28;20044;-62
2021/07/10 09:08:27;;;;;;;3.88;1.50;;;26.50;99.90;;;25.22;47.59;97729.63;5046090;28;20049;-62
2021/07/10 09:11:15;;;;;;;3.90;1.80;;;26.00;99.90;;;25.07;46.90;97728.50;5046567;28;20101;-62
2021/07/10 09:14:02;;;;;;;3.17;1.60;;;25.70;99.90;;;24.76;49.15;97728.88;5049750;28;20045;-62
2021/07/10 09:16:51;;;;;;;2.17;1.17;;;25.90;99.90;;;25.94;47.45;97732.16;5055222;28;20045;-62
2021/07/10 09:19:38;;;;;;;2.85;1.58;;;26.30;99.90;;;26.40;46.36;97720.19;5043117;28;20044;-62
2021/07/10 09:22:30;;;;;;;3.88;1.20;;;26.80;99.90;;;25.61;45.35;97716.81;5032916;28;20120;-62
2021/07/10 09:25:32;;;;;;;;;;;26.60;99.90;;;26.29;46.23;97713.31;5050623;28;20512;-62
2021/07/10 09:28:28;;;;;;;1.90;1.08;;;26.50;99.90;;;26.74;42.77;97705.16;5050553;28;19925;-62
2021/07/10 09:31:53;;;;;;;2.67;1.20;;;26.70;99.90;;;27.25;43.18;97701.34;5048223;28;20064;-62
2021/07/10 09:34:44;;;;;;;2.53;1.15;;;27.20;99.90;;;26.38;43.02;97697.38;5032136;28;20037;-61
2021/07/10 09:37:34;;;;;;;2.90;1.38;;;27.60;99.90;;;27.66;44.35;97695.13;5051450;28;20037;-61
2021/07/10 09:40:33;;;;;;;2.28;1.25;;;27.60;99.90;;;27.24;39.60;97691.69;5050689;28;20119;-62
2021/07/10 09:43:32;;;;;;;1.92;1.10;;;27.80;99.90;;;27.18;41.42;97688.84;5048433;28;20091;-61
2021/07/10 09:46:27;;;;;;;2.20;1.00;;;27.90;99.90;;;26.49;43.60;97691.75;5046675;28;20124;-62
2021/07/10 09:49:25;;;;;;;2.65;1.27;;;28.00;99.90;;;26.61;41.99;97687.81;5047309;28;20527;-62
2021/07/10 09:52:19;;;;;;;3.10;1.35;;;27.80;99.90;;;27.26;43.17;97686.22;5048565;28;20049;-61
2021/07/10 09:55:08;;;;;;;2.80;1.20;;;27.40;99.90;;;26.55;43.59;97680.50;5044589;28;20504;-62
2021/07/10 09:57:58;;;;;;;2.22;1.17;;;;;;;24.47;42.10;97686.59;5050213;28;20525;-62
2021/07/10 10:00:46;;;;;;;2.08;1.05;;;;;;;26.48;42.99;97674.97;5048390;28;20040;-62
2021/07/10 10:03:33;;;;;;;2.35;0.90;;;27.30;99.90;;;28.09;39.95;97677.00;5023278;28;20044;-62
2021/07/10 10:06:35;;;;;;;2.17;1.10;;;27.80;99.90;;;28.61;40.05;97673.75;5048817;28;20279;-63
2021/07/10 10:09:24;;;;;;;2.08;1.00;;;28.60;99.90;;;26.44;40.47;97672.78;5050214;28;20087;-61
2021/07/10 10:12:13;;;;;;;2.50;1.10;;;28.40;98.70;;;26.68;42.37;97661.38;5049119;28;20105;-62
2021/07/10 10:15:00;;;;;;;2.72;1.10;;;27.80;99.90;;;27.57;43.19;97659.66;5040931;28;20524;-62
2021/07/10 10:17:47;;;;;;;2.35;1.30;;;28.20;99.90;;;24.66;43.74;97672.41;5048546;28;20064;-61
2021/07/10 10:20:36;;;;;;;2.63;1.30;;;27.60;99.10;;;23.21;47.65;97669.41;5050298;28;20045;-62
2021/07/10 10:23:26;;;;;;;3.22;1.40;;;26.60;99.60;;;23.23;48.69;97664.78;5046985;28;20045;-62
2021/07/10 10:26:15;;;;;;;3.88;1.25;;;26.10;99.90;;;23.90;46.56;97658.47;5049545;28;20033;-62
2021/07/10 10:29:04;;;;;;;2.17;1.00;;;26.10;99.90;;;24.09;44.98;97659.34;5041327;28;20497;-62
2021/07/10 10:31:52;;;;;;;3.15;1.30;;;25.90;99.90;;;24.51;45.05;97662.28;5034095;28;20122;-62
2021/07/10 10:34:40;;;;;;;3.22;1.08;;;25.50;99.90;;;25.00;45.32;97649.44;5049773;28;20143;-62
2021/07/10 10:37:28;;;;;;;2.65;1.50;;;25.60;99.90;;;24.59;45.35;97664.19;5044087;28;20041;-62
2021/07/10 10:40:22;;;;;;;3.22;1.10;;;25.80;99.90;;;24.31;47.56;97648.28;5031418;28;20044;-62
2021/07/10 10:43:15;;;;;;;3.90;1.25;;;25.60;99.90;;;24.94;45.00;97642.09;5046749;28;20429;-63
2021/07/10 10:46:23;;;;;;;2.83;1.20;;;26.00;99.90;;;26.04;44.99;97647.72;5036315;28;20452;-62
2021/07/10 10:49:35;;;;;;;6.60;1.25;;;26.60;99.90;;;26.35;45.50;97632.03;5016886;28;20045;-62
2021/07/10 10:52:43;;;;;;;2.25;1.10;;;26.70;99.90;;;26.22;44.83;97634.31;5049660;28;20035;-62
2021/07/10 10:55:33;;;;;;;2.30;1.20;;;26.70;99.90;;;26.54;44.77;97625.56;5048837;28;20047;-62
2021/07/10 10:58:30;;;;;;;2.35;0.93;;;27.00;99.90;;;27.52;42.83;97624.69;5047482;28;20202;-63
2021/07/10 11:01:31;;;;;;;3.72;1.70;;;27.60;99.90;;;28.55;40.46;97626.38;5048468;28;20033;-62
2021/07/10 11:04:43;;;;;;;1.75;0.90;;;28.00;99.90;;;28.01;39.00;97632.53;5045775;28;20044;-62
2021/07/10 11:07:33;;;;;;;1.75;1.00;;;28.40;99.80;;;28.23;37.92;97619.38;5048611;28;20484;-63
2021/07/10 11:10:24;;;;;;;;;;;28.90;99.10;;;27.92;37.09;97621.06;5050384;28;20107;-62
2021/07/10 11:13:33;;;;;;;2.03;0.90;;;28.90;97.70;;;28.40;37.15;97609.44;5034232;28;20007;-62
2021/07/10 11:16:22;;;;;;;1.33;0.70;;;29.40;98.50;;;27.68;36.66;97602.47;5040958;28;20029;-62
2021/07/10 11:19:09;;;;;;;3.65;0.95;;;28.80;97.50;;;27.77;37.64;97605.94;5039853;28;20161;-62
2021/07/10 11:22:02;;;;;;;2.33;1.00;;;28.60;98.00;;;29.57;36.06;97599.22;5046350;28;20033;-63
2021/07/10 11:24:50;;;;;;;2.38;0.82;;;29.30;98.60;;;29.93;35.65;97598.47;5054860;28;20525;-63
2021/07/10 11:27:37;;;;;;;2.33;0.80;;;30.00;98.10;;;28.93;35.86;97594.34;5048321;28;20132;-63
2021/07/10 11:30:24;;;;;;;1.50;0.77;;;30.40;97.10;;;29.23;35.55;97589.91;5048622;28;20103;-63
2021/07/10 11:33:13;;;;;;;1.58;0.70;;;30.90;96.30;;;29.47;35.87;97582.59;5045285;28;20048;-63
2021/07/10 11:36:00;;;;;;;2.13;0.80;;;31.30;96.10;;;29.08;35.51;97573.00;5045328;28;20040;-63
2021/07/10 11:38:48;;;;;;;3.17;0.90;;;30.90;96.10;;;29.33;35.92;97570.91;5031169;28;20602;-63
2021/07/10 11:41:35;;;;;;;2.35;0.95;;;30.50;96.20;;;27.37;36.13;97581.06;5045483;28;20060;-64
2021/07/10 11:44:26;;;;;;;2.03;0.70;;;30.30;94.90;;;26.24;40.88;97579.13;5046495;28;20087;-63
2021/07/10 11:47:32;;;;;;;5.90;0.87;;;29.50;96.00;;;25.19;41.60;97565.28;5032387;28;20067;-63